createdAt,value
2023-03-21T00:03:07.857Z,6.95
2023-03-21T00:08:11.162Z,6.92
2023-03-21T00:13:16.035Z,6.91
2023-03-21T00:18:21.312Z,6.91
2023-03-21T00:23:25.581Z,6.76
2023-03-21T00:28:29.071Z,6.75
2023-03-21T00:33:32.673Z,6.72
2023-03-21T00:38:36.482Z,6.60
2023-03-21T00:43:40.544Z,6.54
2023-03-21T00:48:43.624Z,6.46
2023-03-21T00:53:47.105Z,6.31
2023-03-21T00:58:51.458Z,6.15
2023-03-21T01:04:03.393Z,5.82
2023-03-21T01:09:08.755Z,5.82
2023-03-21T01:14:22.466Z,5.62
2023-03-21T01:19:44.685Z,5.47
2023-03-21T01:24:58.610Z,5.36
2023-03-21T01:30:11.262Z,5.29
2023-03-21T01:35:20.744Z,5.06
2023-03-21T01:40:26.498Z,5.12
2023-03-21T01:46:22.922Z,5.09
2023-03-21T01:52:06.591Z,5.06
2023-03-21T01:57:42.455Z,4.97
2023-03-21T02:02:52.790Z,5.01
2023-03-21T02:08:16.720Z,4.91
2023-03-21T02:13:20.463Z,4.95
2023-03-21T02:18:29.997Z,4.98
2023-03-21T02:24:05.573Z,5.08
2023-03-21T02:29:46.928Z,5.11
2023-03-21T02:34:56.114Z,5.08
2023-03-21T02:40:18.201Z,4.90
2023-03-21T02:45:44.455Z,4.79
2023-03-21T02:50:53.539Z,4.84
2023-03-21T02:55:58.086Z,4.87
2023-03-21T03:01:01.210Z,4.96
2023-03-21T03:06:24.530Z,5.10
2023-03-21T03:11:30.429Z,5.17
2023-03-21T03:17:10.424Z,5.29
2023-03-21T03:22:26.152Z,5.22
2023-03-21T03:27:33.716Z,5.36
2023-03-21T03:32:47.324Z,5.30
2023-03-21T03:37:56.900Z,5.27
2023-03-21T03:43:09.384Z,5.48
2023-03-21T03:48:28.065Z,5.91
2023-03-21T03:53:41.353Z,5.95
2023-03-21T03:58:46.138Z,6.29
2023-03-21T04:04:03.713Z,6.57
2023-03-21T04:09:26.705Z,7.16
2023-03-21T04:14:44.196Z,7.47
2023-03-21T04:19:48.498Z,7.40
2023-03-21T04:24:51.770Z,7.80
2023-03-21T04:29:56.404Z,7.75
2023-03-21T04:35:13.623Z,7.74
2023-03-21T04:40:20.277Z,7.94
2023-03-21T04:45:24.080Z,8.29
2023-03-21T04:50:27.199Z,8.29
2023-03-21T04:55:32.033Z,8.44
2023-03-21T05:00:38.801Z,8.48
2023-03-21T05:05:41.900Z,9.43
2023-03-21T05:10:44.969Z,10.49
2023-03-21T05:15:48.193Z,10.73
2023-03-21T05:20:56.153Z,11.20
2023-03-21T05:26:00.034Z,11.83
2023-03-21T05:31:23.410Z,12.01
2023-03-21T05:36:34.604Z,12.59
2023-03-21T05:41:39.231Z,13.31
2023-03-21T05:46:43.727Z,13.66
2023-03-21T05:51:47.259Z,14.40
2023-03-21T05:56:50.844Z,15.07
2023-03-21T06:02:14.226Z,14.97
2023-03-21T06:07:17.603Z,15.07
2023-03-21T06:12:20.810Z,15.00
2023-03-21T06:17:44.236Z,14.91
2023-03-21T06:22:48.363Z,14.56
2023-03-21T06:27:51.604Z,14.30
2023-03-21T06:32:55.883Z,14.62
2023-03-21T06:37:59.438Z,14.89
2023-03-21T06:43:04.666Z,14.96
2023-03-21T06:48:09.343Z,14.74
2023-03-21T06:53:27.713Z,14.81
2023-03-21T06:58:52.330Z,14.46
2023-03-21T07:04:14.084Z,14.91
2023-03-21T07:09:18.534Z,15.32
2023-03-21T07:14:22.016Z,15.11
2023-03-21T07:19:25.272Z,15.39
2023-03-21T07:24:28.376Z,15.65
2023-03-21T07:29:31.448Z,15.08
2023-03-21T07:34:34.511Z,14.90
2023-03-21T07:39:39.714Z,15.19
2023-03-21T07:44:43.180Z,15.33
2023-03-21T07:49:46.385Z,15.27
2023-03-21T07:54:49.827Z,15.24
2023-03-21T07:59:52.899Z,15.77
2023-03-21T08:04:56.595Z,15.32
2023-03-21T08:10:00.175Z,15.05
2023-03-21T08:15:03.319Z,14.87
2023-03-21T08:20:09.068Z,15.30
2023-03-21T08:25:14.260Z,15.90
2023-03-21T08:30:22.331Z,15.75
2023-03-21T08:35:25.627Z,15.69
2023-03-21T08:40:28.662Z,15.77
2023-03-21T08:45:31.886Z,15.79
2023-03-21T08:50:34.907Z,15.76
2023-03-21T08:55:38.259Z,16.26
2023-03-21T09:00:41.465Z,16.39
2023-03-21T09:05:45.909Z,16.41
2023-03-21T09:10:49.355Z,15.91
2023-03-21T09:15:53.537Z,15.87
2023-03-21T09:20:56.850Z,16.43
2023-03-21T09:26:00.023Z,15.90
2023-03-21T09:31:04.345Z,16.43
2023-03-21T09:36:14.627Z,16.41
2023-03-21T09:41:40.452Z,16.66
2023-03-21T09:46:54.294Z,16.49
2023-03-21T09:52:01.023Z,16.51
2023-03-21T09:57:34.569Z,16.86
2023-03-21T10:03:01.988Z,16.59
2023-03-21T10:08:25.458Z,16.70
2023-03-21T10:13:33.032Z,16.80
2023-03-21T10:18:38.086Z,17.07
2023-03-21T10:23:41.211Z,17.02
2023-03-21T10:28:52.856Z,16.89
2023-03-21T10:34:02.995Z,16.77
2023-03-21T10:39:14.248Z,16.95
2023-03-21T10:44:21.202Z,17.11
2023-03-21T10:49:26.789Z,16.89
2023-03-21T10:54:31.312Z,17.08
2023-03-21T11:00:00.374Z,17.01
2023-03-21T11:05:09.271Z,16.89
2023-03-21T11:10:57.152Z,16.87
2023-03-21T11:16:09.385Z,17.07
2023-03-21T11:21:14.589Z,17.21
2023-03-21T11:26:24.842Z,16.81
2023-03-21T11:31:46.195Z,17.10
2023-03-21T11:36:51.655Z,17.33
2023-03-21T11:41:54.770Z,17.32
2023-03-21T11:46:58.583Z,17.42
2023-03-21T11:52:23.618Z,17.33
2023-03-21T11:57:49.316Z,17.48
2023-03-21T12:03:13.822Z,17.37
2023-03-21T12:08:38.173Z,17.22
2023-03-21T12:13:53.219Z,17.03
2023-03-21T12:19:20.293Z,17.14
2023-03-21T12:24:37.881Z,16.87
2023-03-21T12:30:11.602Z,16.74
2023-03-21T12:35:25.932Z,16.42
2023-03-21T12:40:54.049Z,16.45
2023-03-21T12:46:14.896Z,16.33
2023-03-21T12:51:23.710Z,16.34
2023-03-21T12:56:34.682Z,16.26
2023-03-21T13:01:40.575Z,16.26
2023-03-21T13:06:46.881Z,15.98
2023-03-21T13:11:52.585Z,15.96
2023-03-21T13:17:04.506Z,16.05
2023-03-21T13:22:09.530Z,15.94
2023-03-21T13:27:39.799Z,15.97
2023-03-21T13:32:44.972Z,15.88
2023-03-21T13:38:02.519Z,16.02
2023-03-21T13:43:05.881Z,16.05
2023-03-21T13:48:28.760Z,15.86
2023-03-21T13:53:45.483Z,15.86
2023-03-21T13:58:48.485Z,15.96
2023-03-21T14:03:59.875Z,15.92
2023-03-21T14:09:04.335Z,15.90
2023-03-21T14:14:07.549Z,15.85
2023-03-21T14:19:12.278Z,15.84
2023-03-21T14:24:17.290Z,15.78
2023-03-21T14:29:35.614Z,15.66
2023-03-21T14:34:39.498Z,15.60
2023-03-21T14:39:42.803Z,15.41
2023-03-21T14:44:55.320Z,15.50
2023-03-21T14:50:01.398Z,15.41
2023-03-21T14:55:14.630Z,15.31
2023-03-21T15:00:31.642Z,15.23
2023-03-21T15:05:39.188Z,15.09
2023-03-21T15:11:05.951Z,15.06
2023-03-21T15:16:12.003Z,14.87
2023-03-21T15:21:23.953Z,14.73
2023-03-21T15:26:27.665Z,14.66
2023-03-21T15:31:36.742Z,14.63
2023-03-21T15:36:46.719Z,14.63
2023-03-21T15:42:23.868Z,14.55
2023-03-21T15:47:40.312Z,14.41
2023-03-21T15:52:43.761Z,14.31
2023-03-21T15:57:47.784Z,14.21
2023-03-21T16:02:58.576Z,14.25
2023-03-21T16:08:20.497Z,14.15
2023-03-21T16:13:23.577Z,14.20
2023-03-21T16:18:26.759Z,14.04
2023-03-21T16:23:30.249Z,14.09
2023-03-21T16:28:34.540Z,13.97
2023-03-21T16:33:37.568Z,13.82
2023-03-21T16:38:40.701Z,13.78
2023-03-21T16:43:44.347Z,13.73
2023-03-21T16:48:51.225Z,13.67
2023-03-21T16:53:54.541Z,13.64
2023-03-21T16:58:58.289Z,13.53
2023-03-21T17:04:01.389Z,13.52
2023-03-21T17:09:05.034Z,13.37
2023-03-21T17:14:10.211Z,13.31
2023-03-21T17:19:18.463Z,13.23
2023-03-21T17:24:21.808Z,13.17
2023-03-21T17:29:24.880Z,13.08
2023-03-21T17:34:27.890Z,13.00
2023-03-21T17:39:32.528Z,12.95
2023-03-21T17:44:35.816Z,12.93
2023-03-21T17:49:38.890Z,12.78
2023-03-21T17:54:41.925Z,12.94
2023-03-21T17:59:45.623Z,13.07
2023-03-21T18:04:48.695Z,12.92
2023-03-21T18:09:51.780Z,12.94
2023-03-21T18:14:54.864Z,13.03
2023-03-21T18:19:59.898Z,12.98
2023-03-21T18:25:03.749Z,12.92
2023-03-21T18:30:36.106Z,13.03
2023-03-21T18:35:34.129Z,13.13
2023-03-21T18:40:37.518Z,13.00
2023-03-21T18:45:41.761Z,12.85
2023-03-21T18:50:44.880Z,13.04
2023-03-21T18:55:50.116Z,12.88
2023-03-21T19:00:56.863Z,12.88
2023-03-21T19:06:01.069Z,12.93
2023-03-21T19:11:06.588Z,12.68
2023-03-21T19:16:11.497Z,12.76
2023-03-21T19:21:14.772Z,12.81
2023-03-21T19:26:17.869Z,12.68
2023-03-21T19:31:22.234Z,12.70
2023-03-21T19:36:26.568Z,12.63
2023-03-21T19:41:29.730Z,12.55
2023-03-21T19:46:33.081Z,12.64
2023-03-21T19:51:36.575Z,12.59
2023-03-21T19:56:47.024Z,12.59
2023-03-21T20:01:56.380Z,12.66
2023-03-21T20:07:01.690Z,12.68
2023-03-21T20:12:06.029Z,12.56
2023-03-21T20:17:09.136Z,12.60
2023-03-21T20:22:24.859Z,12.36
2023-03-21T20:27:32.443Z,12.30
2023-03-21T20:32:39.314Z,12.34
2023-03-21T20:37:46.529Z,12.26
2023-03-21T20:42:50.418Z,12.16
2023-03-21T20:47:53.667Z,12.12
2023-03-21T20:53:06.985Z,12.13
2023-03-21T20:58:36.712Z,12.13
2023-03-21T21:03:40.469Z,12.02
2023-03-21T21:08:44.157Z,11.92
2023-03-21T21:13:47.281Z,12.06
2023-03-21T21:18:50.362Z,11.84
2023-03-21T21:23:53.457Z,11.80
2023-03-21T21:28:58.434Z,11.71
2023-03-21T21:34:03.357Z,11.77
2023-03-21T21:39:07.697Z,11.69
2023-03-21T21:44:11.441Z,11.68
2023-03-21T21:49:14.634Z,11.56
2023-03-21T21:54:18.672Z,11.51
2023-03-21T21:59:22.516Z,11.30
2023-03-21T22:04:28.141Z,10.95
2023-03-21T22:09:31.590Z,10.82
2023-03-21T22:14:34.850Z,10.74
2023-03-21T22:19:40.216Z,10.59
2023-03-21T22:24:43.638Z,10.44
2023-03-21T22:29:46.757Z,10.30
2023-03-21T22:34:49.896Z,10.43
2023-03-21T22:39:52.981Z,10.76
2023-03-21T22:44:56.118Z,10.76
2023-03-21T22:49:59.407Z,10.95
2023-03-21T22:55:02.783Z,11.06
2023-03-21T23:00:13.807Z,11.10
2023-03-21T23:05:17.002Z,11.00
2023-03-21T23:10:20.580Z,11.15
2023-03-21T23:15:23.810Z,10.98
2023-03-21T23:20:26.856Z,11.21
2023-03-21T23:25:30.679Z,11.16
2023-03-21T23:30:33.716Z,11.30
2023-03-21T23:35:38.600Z,11.22
2023-03-21T23:40:42.035Z,11.22
2023-03-21T23:45:45.098Z,11.36
2023-03-21T23:50:48.681Z,11.37
2023-03-21T23:55:52.141Z,11.27
